07:19
Airports
Links
Donate
Help keep this website running!
PayPal
Bitcoin
METAR
KJAX 190656Z 00000KT 10SM CLR M01/M04 A3034 RMK AO2 SLP274 T10111044 $
Current Weather Conditions at KJAX
VFR 06:56:00 19-01-18
Automated station
Altimeter:30.34 hg
Temp:-1.1°c 30°f
Dew point:-4.4°c 25°f
Wind:0 knots, 0 mph, 0 m/s,
Variable direction
Visibility:10.0 statute miles
(CLR) Clear
Past METAR reports
VFR 05:56:00 19-01-18
Automated station
Altimeter:30.35 hg
Temp:-1.7°c 30°f
Dew point:-5.0°c 23°f
Wind:0 knots, 0 mph, 0 m/s,
Variable direction
Visibility:10.0 statute miles
(CLR) Clear
KJAX 190556Z 00000KT 10SM CLR M02/M05 A3035 RMK AO2 SLP276 T10171050 10039 21017 58010 $
VFR 04:56:00 19-01-18
Automated station
Altimeter:30.36 hg
Temp:-0.6°c 32°f
Dew point:-4.4°c 25°f
Wind:0 knots, 0 mph, 0 m/s,
Variable direction
Visibility:10.0 statute miles
(CLR) Clear
KJAX 190456Z 00000KT 10SM CLR M01/M04 A3036 RMK AO2 SLP281 T10061044 401111039
VFR 03:56:00 19-01-18
Automated station
Altimeter:30.36 hg
Temp:0.0°c 32°f
Dew point:-4.4°c 25°f
Wind:0 knots, 0 mph, 0 m/s,
Variable direction
Visibility:10.0 statute miles
(CLR) Clear
KJAX 190356Z 00000KT 10SM CLR 00/M04 A3036 RMK AO2 SLP282 T00001044
VFR 02:56:00 19-01-18
Automated station
Altimeter:30.38 hg
Temp:0.6°c 32°f
Dew point:-4.4°c 25°f
Wind:0 knots, 0 mph, 0 m/s,
Variable direction
Visibility:10.0 statute miles
(CLR) Clear
KJAX 190256Z 00000KT 10SM CLR 01/M04 A3038 RMK AO2 SLP287 T00061044 51012
VFR 01:56:00 19-01-18
Automated station
Altimeter:30.37 hg
Temp:1.7°c 34°f
Dew point:-4.4°c 25°f
Wind:0 knots, 0 mph, 0 m/s,
Variable direction
Visibility:10.0 statute miles
(CLR) Clear
KJAX 190156Z 00000KT 10SM CLR 02/M04 A3037 RMK AO2 SLP284 T00171044
TAF
KJAX 190525Z 1906/2006 00000KT P6SM SKC FM191400 27003KT P6SM SKC FM191700 24006KT P6SM FEW250 FM192300 VRB03KT P6SM FEW250
Forecast at KJAX
06:00 19-01-18 to 14:00 19-01-18
Wind:0 Knots Variable direction
Visibility:6.21 statute miles
SKC Clear
FM 14:00 19-01-18 to 17:00 19-01-18
Wind:3 Knots from 270°
Visibility:6.21 statute miles
SKC Clear
FM 17:00 19-01-18 to 23:00 19-01-18
Wind:6 Knots from 240°
Visibility:6.21 statute miles
25000FEW A few
FM 23:00 19-01-18 to 06:00 20-01-18
Wind:3 Knots from 360°
Visibility:6.21 statute miles
25000FEW A few